Somerset, NJ - U.S.A.

40° 30' 13"N, 74° 29' 17"W, Elevation 55 ft.

Monday, August 3, 2015
7:18:00 PM (Eastern)

215th day of the year

Updated and refreshed every 2 minutes. Weather computer in use: Davis Vantage PRO2 Plus


Current Weather:
Yesterday

Current Today's Highs and Lows 24 HR Change
Temperature 85.6°F (29.8°C) ↓ 91.1° 2:02 PM
65.9° 6:33 AM
2.0
Dew Point 61.1°F (16.1°C) ↑ 68.9° 9:08 AM
58.2° 12:03 AM
5
Humidity 44% ↑ 92% 8:08 AM
37% 2:25 PM
5%
Wind Gust S 13 mph S 25 4:24 PM
SSW 0 12:00 AM
 
Wind Speed S 4 mph ↓
Light air (1)
SSW 12 3:57 PM
SSW 0 12:00 AM
4 mph
Precipitation 0.00" (0.00 mm) 1
Last 24 hours 0.00"
Instantaneous rate 0.00"/hr
Storm total 0.00"
0.00"2 12:00 AM
0.00"2 12:00 AM
0.00 ins.
Barometer 29.775" (1008.3 mb)
Rising
29.869" 12:44 AM
29.761" 5:59 PM
-0.082"
Wind Chill Gust 86°F (30°C) 91° 2:02 PM
66° 6:33 AM
 
Wind Chill Avg 86°F (30°C) 91° 2:02 PM
66° 6:33 AM
 
Heat Index 86°F (30.0°C) 95° 1:21 PM
65° 6:33 AM
 
Sunshine 47 W/m2
Sunshine minutes 341
1027 12:59 PM
0 12:00 AM
29 W/m2
UV Index  0.0 4.4 12:56 PM
0.0 12:00 AM
0.0
1. Daily total rainfall.
2. Maximum and minimum rainfall are the instantaneous rainfall rates.
 

'KSOM' METAR REPORT:

METAR KSOM 032318Z AUTO 20003KT 30/16 A2977 RMK AO1 SLP083 T02980161 

Webcam
EBWeather Image

Video - Last 3 Hours

Video - Yesterday

NJ Region Surface Map
NJ Sfc Map

Weather Data from Somerset, NJ

Data generated by WxSolution Version 1.8.7.5, Build 2015.04.24.